Time;durP1;ratioP1;P1;durP2;ratioP2;P2;SDS_P1;SDS_P2;PMS_P1;PMS_P2;Temp;Humidity;BMP_temperature;BMP_pressure;BME280_temperature;BME280_humidity;BME280_pressure;Samples;Min_cycle;Max_cycle;Signal;HPM_P1;HPM_P2
2021/11/06 00:01:59;;;;;;;7.90;5.80;;;6.20;99.90;;;;;;6202990;28;20472;-66
2021/11/06 00:05:03;;;;;;;6.20;5.37;;;6.20;99.90;;;;;;6203362;28;20487;-66
2021/11/06 00:08:07;;;;;;;6.50;5.83;;;6.10;99.90;;;;;;6203818;28;20472;-66
2021/11/06 00:11:10;;;;;;;6.27;5.17;;;6.20;99.90;;;;;;6203447;28;20480;-68
2021/11/06 00:14:13;;;;;;;6.33;5.73;;;6.20;99.90;;;;;;6203352;28;20472;-68
2021/11/06 00:17:17;;;;;;;5.63;5.13;;;6.10;99.90;;;;;;6193865;28;20989;-67
2021/11/06 00:20:20;;;;;;;5.40;4.90;;;6.10;99.90;;;;;;6202776;28;20817;-65
2021/11/06 00:23:24;;;;;;;10.07;8.10;;;6.10;99.90;;;;;;6202628;28;20480;-66
2021/11/06 00:26:31;;;;;;;8.23;7.33;;;6.10;99.90;;;;;;6203113;28;20580;-65
2021/11/06 00:29:34;;;;;;;8.13;7.33;;;6.00;99.90;;;;;;6202470;28;20809;-65
2021/11/06 00:32:38;;;;;;;9.40;6.77;;;6.00;99.90;;;;;;6202820;28;20560;-68
2021/11/06 00:35:42;;;;;;;9.30;6.83;;;5.90;99.90;;;;;;6201772;28;20477;-68
2021/11/06 00:38:47;;;;;;;12.37;9.00;;;5.90;99.90;;;;;;6202698;28;20436;-67
2021/11/06 00:41:50;;;;;;;11.07;8.70;;;6.00;99.90;;;;;;6201795;28;20889;-68
2021/11/06 00:44:53;;;;;;;11.10;7.43;;;5.90;99.90;;;;;;6201048;28;20458;-67
2021/11/06 00:47:57;;;;;;;8.00;6.00;;;5.90;99.90;;;;;;6201444;28;20449;-67
2021/11/06 00:51:00;;;;;;;6.10;5.53;;;5.90;99.90;;;;;;6201383;28;20550;-66
2021/11/06 00:54:05;;;;;;;6.90;5.87;;;5.90;99.90;;;;;;6200969;28;20476;-67
2021/11/06 00:57:08;;;;;;;6.83;5.27;;;5.90;99.90;;;;;;6201091;28;20473;-69
2021/11/06 01:00:13;;;;;;;5.83;5.23;;;5.90;99.90;;;;;;6201476;28;20464;-67
2021/11/06 01:03:16;;;;;;;4.80;4.33;;;5.90;99.90;;;;;;6202329;28;20492;-68
2021/11/06 01:06:20;;;;;;;5.33;4.83;;;5.90;99.90;;;;;;6202454;28;20492;-68
2021/11/06 01:09:24;;;;;;;5.80;5.30;;;5.80;99.90;;;;;;6202552;28;20495;-68
2021/11/06 01:12:28;;;;;;;5.60;4.63;;;5.80;99.90;;;;;;6200722;28;20469;-68
2021/11/06 01:15:31;;;;;;;5.90;5.30;;;5.70;99.90;;;;;;6201266;28;20991;-68
2021/11/06 01:18:34;;;;;;;7.23;4.07;;;5.70;99.90;;;;;;6181324;28;20945;-68
2021/11/06 01:21:38;;;;;;;5.83;4.40;;;5.70;99.90;;;;;;6189305;28;20469;-68
2021/11/06 01:24:42;;;;;;;4.60;4.20;;;5.70;99.90;;;;;;6186928;28;20524;-68
2021/11/06 01:27:46;;;;;;;3.93;3.63;;;5.70;99.90;;;;;;6188221;28;20484;-68
2021/11/06 01:30:50;;;;;;;4.03;3.63;;;5.70;99.90;;;;;;6186815;28;20476;-68
2021/11/06 01:33:53;;;;;;;5.00;4.50;;;5.60;99.90;;;;;;6187423;28;20488;-68
2021/11/06 01:36:56;;;;;;;5.60;4.30;;;5.60;99.90;;;;;;6187180;28;20473;-68
2021/11/06 01:40:00;;;;;;;4.83;4.40;;;5.60;99.90;;;;;;6192825;28;20477;-68
2021/11/06 01:43:04;;;;;;;4.30;3.73;;;5.60;99.90;;;;;;6201393;28;20469;-68
2021/11/06 01:46:09;;;;;;;4.97;4.57;;;5.60;99.90;;;;;;6200586;28;20472;-68
2021/11/06 01:49:12;;;;;;;4.10;3.70;;;5.50;99.90;;;;;;6201056;28;20480;-68
2021/11/06 01:52:16;;;;;;;4.30;3.43;;;5.60;99.90;;;;;;6200839;28;20817;-68
2021/11/06 01:55:21;;;;;;;5.63;4.10;;;5.50;99.90;;;;;;6201269;28;20484;-68
2021/11/06 01:58:26;;;;;;;4.20;3.50;;;5.50;99.90;;;;;;6201373;28;20477;-68
2021/11/06 02:01:30;;;;;;;4.33;3.77;;;5.50;99.90;;;;;;6201268;28;20496;-68
2021/11/06 02:04:33;;;;;;;5.00;4.10;;;5.50;99.90;;;;;;6201168;28;20484;-68
2021/11/06 02:07:36;;;;;;;7.07;3.90;;;5.40;99.90;;;;;;6201297;28;20988;-68
2021/11/06 02:10:41;;;;;;;4.60;3.90;;;5.40;99.90;;;;;;6201097;28;20481;-68
2021/11/06 02:13:45;;;;;;;4.13;3.73;;;5.40;99.90;;;;;;6200655;28;20531;-68
2021/11/06 02:16:48;;;;;;;5.97;4.00;;;5.30;99.90;;;;;;6201163;28;20480;-68
2021/11/06 02:19:51;;;;;;;4.00;3.60;;;5.30;99.90;;;;;;6201006;28;20479;-68
2021/11/06 02:22:56;;;;;;;3.63;3.30;;;5.30;99.90;;;;;;6183616;28;20968;-68
2021/11/06 02:25:59;;;;;;;4.43;4.00;;;5.20;99.90;;;;;;6187311;28;20490;-68
2021/11/06 02:29:23;;;;;;;3.70;3.40;;;5.20;99.90;;;;;;6184157;28;20541;-68
2021/11/06 02:32:31;;;;;;;10.27;4.30;;;5.20;99.90;;;;;;6177013;28;20478;-68
2021/11/06 02:35:34;;;;;;;4.07;3.60;;;5.10;99.90;;;;;;6176326;28;20477;-68
2021/11/06 02:38:38;;;;;;;4.30;3.90;;;5.10;99.90;;;;;;6176585;28;20469;-68
2021/11/06 02:41:42;;;;;;;5.20;4.80;;;5.10;99.90;;;;;;6176702;28;20552;-68
2021/11/06 02:44:45;;;;;;;6.67;6.07;;;5.10;99.90;;;;;;6176555;28;20445;-68
2021/11/06 02:47:49;;;;;;;6.17;5.50;;;5.00;99.90;;;;;;6176366;28;20921;-68
2021/11/06 02:50:53;;;;;;;5.67;5.17;;;4.90;99.90;;;;;;6176797;28;20481;-68
2021/11/06 02:53:57;;;;;;;5.57;4.00;;;5.00;99.90;;;;;;6176800;28;20449;-68
2021/11/06 02:57:00;;;;;;;4.87;4.47;;;4.90;99.90;;;;;;6176539;28;20851;-68
2021/11/06 03:00:05;;;;;;;4.37;3.97;;;4.90;99.90;;;;;;6179618;28;20465;-68
2021/11/06 03:03:09;;;;;;;7.67;3.70;;;4.80;99.90;;;;;;6180655;28;20465;-68
2021/11/06 03:06:12;;;;;;;5.60;3.60;;;4.80;99.90;;;;;;6180690;28;20473;-68
2021/11/06 03:09:17;;;;;;;4.33;4.03;;;4.80;99.90;;;;;;6181107;28;20492;-68
2021/11/06 03:12:21;;;;;;;4.00;3.30;;;4.80;99.90;;;;;;6180243;28;20478;-68
2021/11/06 03:15:24;;;;;;;4.87;3.90;;;4.80;99.90;;;;;;6180539;28;20484;-68
2021/11/06 03:18:27;;;;;;;4.33;3.93;;;4.70;99.90;;;;;;6180576;28;20995;-68
2021/11/06 03:21:30;;;;;;;3.73;3.43;;;4.70;99.90;;;;;;6180886;28;20480;-68
2021/11/06 03:24:35;;;;;;;4.73;4.33;;;4.60;99.90;;;;;;6180317;28;20469;-68
2021/11/06 03:27:38;;;;;;;3.53;3.23;;;4.50;99.90;;;;;;6167540;28;20482;-68
2021/11/06 03:30:42;;;;;;;4.83;3.30;;;4.50;99.90;;;;;;6180041;28;20556;-68
2021/11/06 03:33:45;;;;;;;4.17;3.70;;;4.50;99.90;;;;;;6180269;28;20470;-68
2021/11/06 03:36:48;;;;;;;4.50;3.70;;;4.50;99.90;;;;;;6180036;28;20482;-68
2021/11/06 03:39:53;;;;;;;3.37;3.07;;;4.60;99.90;;;;;;6179796;28;20505;-68
2021/11/06 03:42:56;;;;;;;4.30;3.10;;;4.50;99.90;;;;;;6180218;28;20485;-68
2021/11/06 03:45:59;;;;;;;5.17;3.20;;;4.50;99.90;;;;;;6179915;28;20469;-68
2021/11/06 03:49:03;;;;;;;3.50;3.20;;;4.50;99.90;;;;;;6180053;28;20532;-68
2021/11/06 03:52:07;;;;;;;4.30;2.70;;;4.50;99.90;;;;;;6179859;28;20488;-68
2021/11/06 03:55:14;;;;;;;3.50;3.20;;;4.40;99.90;;;;;;6179493;28;21012;-68
2021/11/06 03:58:17;;;;;;;3.73;3.43;;;4.50;99.90;;;;;;6179296;28;20801;-68
2021/11/06 04:01:20;;;;;;;3.73;3.27;;;4.50;99.90;;;;;;6179372;28;20481;-68
2021/11/06 04:04:23;;;;;;;4.40;3.23;;;4.40;99.90;;;;;;6179578;28;20822;-68
2021/11/06 04:07:26;;;;;;;4.27;2.80;;;4.40;99.90;;;;;;6179524;28;20477;-68
2021/11/06 04:10:31;;;;;;;3.50;2.90;;;4.40;99.90;;;;;;6178667;28;20473;-68
2021/11/06 04:13:34;;;;;;;3.20;3.00;;;4.40;99.90;;;;;;6179176;28;20470;-68
2021/11/06 04:16:37;;;;;;;3.53;3.00;;;4.40;99.90;;;;;;6178580;28;20478;-68
2021/11/06 04:19:41;;;;;;;3.10;2.90;;;4.40;99.90;;;;;;6178907;28;20486;-68
2021/11/06 04:22:44;;;;;;;2.80;2.57;;;4.30;99.90;;;;;;6178699;28;20548;-68
2021/11/06 04:25:48;;;;;;;3.10;2.80;;;4.30;99.90;;;;;;6178676;28;20482;-68
2021/11/06 04:28:51;;;;;;;3.20;2.90;;;4.20;99.90;;;;;;6178432;28;20977;-68
2021/11/06 04:31:55;;;;;;;3.00;2.60;;;4.20;99.90;;;;;;6173935;28;20966;-68
2021/11/06 04:34:58;;;;;;;2.80;2.60;;;4.20;99.90;;;;;;6178214;28;20992;-68
2021/11/06 04:38:01;;;;;;;2.93;2.70;;;4.20;99.90;;;;;;6130573;29;20483;-68
2021/11/06 04:41:05;;;;;;;3.00;2.73;;;4.30;99.90;;;;;;6130599;29;20467;-68
2021/11/06 04:44:08;;;;;;;2.80;2.60;;;4.20;99.90;;;;;;6130308;29;20475;-68
2021/11/06 04:47:11;;;;;;;3.53;3.23;;;4.20;99.90;;;;;;6130267;29;21034;-68
2021/11/06 04:50:15;;;;;;;2.70;2.50;;;4.30;99.90;;;;;;6130437;29;20475;-68
2021/11/06 04:53:18;;;;;;;3.43;2.70;;;4.30;99.90;;;;;;6130735;29;20480;-68
2021/11/06 04:56:23;;;;;;;2.90;2.70;;;4.20;99.90;;;;;;6130555;28;20490;-68
2021/11/06 04:59:26;;;;;;;2.80;2.60;;;4.20;99.90;;;;;;6130887;29;20543;-68
2021/11/06 05:02:31;;;;;;;2.90;2.70;;;4.30;99.90;;;;;;6130026;28;20485;-68
2021/11/06 05:05:35;;;;;;;3.53;3.17;;;4.20;99.90;;;;;;6129866;29;20490;-68
2021/11/06 05:08:38;;;;;;;3.50;3.20;;;4.20;99.90;;;;;;6130555;29;20963;-68
2021/11/06 05:11:42;;;;;;;3.70;2.43;;;4.10;99.90;;;;;;6129416;28;20499;-67
2021/11/06 05:14:45;;;;;;;3.37;3.10;;;4.10;99.90;;;;;;6130628;29;20467;-68
2021/11/06 05:17:49;;;;;;;2.47;2.27;;;4.10;99.90;;;;;;6129627;29;20474;-68
2021/11/06 05:20:52;;;;;;;3.20;2.50;;;4.10;99.90;;;;;;6129394;29;20470;-68
2021/11/06 05:23:55;;;;;;;2.70;2.50;;;4.00;99.90;;;;;;6129666;29;20471;-68
2021/11/06 05:27:00;;;;;;;2.67;2.47;;;4.00;99.90;;;;;;6129410;28;20471;-68
2021/11/06 05:30:22;;;;;;;3.07;2.87;;;4.00;99.90;;;;;;6129801;29;20468;-68
2021/11/06 05:33:25;;;;;;;4.57;4.20;;;4.00;99.90;;;;;;6130632;29;20475;-68
2021/11/06 05:36:30;;;;;;;3.27;2.97;;;4.00;99.90;;;;;;6152904;28;20482;-68
2021/11/06 05:39:33;;;;;;;3.43;2.93;;;4.10;99.90;;;;;;6177592;28;20473;-68
2021/11/06 05:42:38;;;;;;;2.97;2.67;;;4.00;99.90;;;;;;6177415;28;20480;-68
2021/11/06 05:45:41;;;;;;;2.67;2.57;;;4.10;99.90;;;;;;6177566;28;20469;-68
2021/11/06 05:48:44;;;;;;;4.03;3.73;;;4.00;99.90;;;;;;6177340;28;20469;-68
2021/11/06 05:51:58;;;;;;;5.80;4.40;;;4.10;99.90;;;;;;6177730;28;20634;-68
2021/11/06 05:55:01;;;;;;;4.83;4.43;;;4.00;99.90;;;;;;6177056;28;20477;-68
2021/11/06 05:58:05;;;;;;;4.90;4.40;;;4.00;99.90;;;;;;6176772;28;20999;-68
2021/11/06 06:01:09;;;;;;;5.80;5.13;;;4.00;99.90;;;;;;6177304;28;20485;-68
2021/11/06 06:04:12;;;;;;;5.40;3.90;;;4.00;99.90;;;;;;6176973;28;20473;-68
2021/11/06 06:07:15;;;;;;;4.70;3.23;;;4.10;99.90;;;;;;6176997;28;21024;-68
2021/11/06 06:10:18;;;;;;;3.60;3.40;;;4.10;99.90;;;;;;6176730;28;20964;-68
2021/11/06 06:13:25;;;;;;;4.83;3.70;;;4.00;99.90;;;;;;6177329;28;20528;-68
2021/11/06 06:16:28;;;;;;;4.40;2.90;;;4.00;99.90;;;;;;6176825;28;20485;-68
2021/11/06 06:19:31;;;;;;;3.20;3.00;;;4.00;99.90;;;;;;6177061;28;20803;-68
2021/11/06 06:22:35;;;;;;;3.57;3.30;;;4.10;99.90;;;;;;6176716;28;20474;-68
2021/11/06 06:25:38;;;;;;;4.77;4.40;;;4.10;99.90;;;;;;6176932;28;20942;-68
2021/11/06 06:28:42;;;;;;;4.57;4.10;;;4.20;99.90;;;;;;6176629;28;20469;-67
2021/11/06 06:31:46;;;;;;;3.87;3.57;;;4.20;99.90;;;;;;6177310;28;20466;-67
2021/11/06 06:34:49;;;;;;;3.83;3.53;;;4.20;99.90;;;;;;6181039;28;20496;-67
2021/11/06 06:37:52;;;;;;;4.60;4.30;;;4.30;99.90;;;;;;6181104;28;20492;-68
2021/11/06 06:40:55;;;;;;;3.53;3.27;;;4.30;99.90;;;;;;6171852;28;20613;-67
2021/11/06 06:43:59;;;;;;;3.70;3.30;;;4.30;99.90;;;;;;6181172;28;20481;-67
2021/11/06 06:47:03;;;;;;;3.23;3.03;;;4.30;99.90;;;;;;6181021;28;20481;-67
2021/11/06 06:50:07;;;;;;;3.90;3.50;;;4.40;99.90;;;;;;6181049;28;20484;-67
2021/11/06 06:53:10;;;;;;;5.67;3.63;;;4.50;99.90;;;;;;6180601;28;20973;-67
2021/11/06 06:56:14;;;;;;;4.30;3.70;;;4.40;99.90;;;;;;6180317;28;20481;-67
2021/11/06 06:59:18;;;;;;;5.17;3.53;;;4.50;99.90;;;;;;6180876;28;20481;-67
2021/11/06 07:02:21;;;;;;;4.63;3.50;;;4.50;99.90;;;;;;6181302;28;20473;-67
2021/11/06 07:05:24;;;;;;;4.70;3.53;;;4.50;99.90;;;;;;6180802;28;20492;-68
2021/11/06 07:08:27;;;;;;;3.57;3.37;;;4.60;99.90;;;;;;6181108;28;20992;-67
2021/11/06 07:11:30;;;;;;;4.03;3.60;;;4.70;99.90;;;;;;6197261;28;20531;-67
2021/11/06 07:14:35;;;;;;;3.90;3.60;;;4.70;99.90;;;;;;6193180;28;20489;-67
2021/11/06 07:17:38;;;;;;;4.07;3.70;;;4.80;99.90;;;;;;6190595;28;20472;-68
2021/11/06 07:20:42;;;;;;;5.23;3.80;;;4.80;99.90;;;;;;6200305;28;20933;-68
2021/11/06 07:23:45;;;;;;;4.43;4.07;;;4.90;99.90;;;;;;6204277;28;20448;-68
2021/11/06 07:26:48;;;;;;;5.33;4.00;;;5.00;99.90;;;;;;6204454;28;20912;-68
2021/11/06 07:29:53;;;;;;;7.63;4.27;;;5.00;99.90;;;;;;6204186;28;20889;-68
2021/11/06 07:32:56;;;;;;;6.60;4.13;;;5.10;99.90;;;;;;6204707;28;20480;-67
2021/11/06 07:35:59;;;;;;;4.47;4.07;;;5.20;99.90;;;;;;6203868;28;20495;-67
2021/11/06 07:39:02;;;;;;;5.80;4.60;;;5.30;99.90;;;;;;6203991;28;20860;-67
2021/11/06 07:42:06;;;;;;;6.30;4.67;;;5.40;99.90;;;;;;6194510;28;20476;-68
2021/11/06 07:45:13;;;;;;;4.80;4.20;;;5.50;99.90;;;;;;6202967;28;20468;-67
2021/11/06 07:48:16;;;;;;;7.53;5.10;;;5.60;99.90;;;;;;6204370;28;20468;-67
2021/11/06 07:51:19;;;;;;;6.07;4.90;;;5.70;99.90;;;;;;6203901;28;20476;-67
2021/11/06 07:54:22;;;;;;;7.60;5.10;;;5.80;99.90;;;;;;6204180;28;20523;-67
2021/11/06 07:57:26;;;;;;;4.97;4.47;;;5.90;99.90;;;;;;6203472;28;20945;-68
2021/11/06 08:00:33;;;;;;;6.50;5.00;;;6.00;99.90;;;;;;6203771;28;20821;-67
2021/11/06 08:03:37;;;;;;;7.57;5.13;;;6.10;99.90;;;;;;6203130;28;20465;-68
2021/11/06 08:06:40;;;;;;;13.00;5.37;;;6.20;99.90;;;;;;6203288;28;20506;-68
2021/11/06 08:09:43;;;;;;;7.47;5.47;;;6.30;99.90;;;;;;6203795;28;20778;-68
2021/11/06 08:12:46;;;;;;;9.43;6.63;;;6.40;99.90;;;;;;6202938;28;20480;-68
2021/11/06 08:15:51;;;;;;;8.73;5.90;;;6.50;99.90;;;;;;6203069;28;20468;-70
2021/11/06 08:18:54;;;;;;;8.67;5.80;;;6.70;99.90;;;;;;6203339;28;20473;-67
2021/11/06 08:21:57;;;;;;;6.67;5.90;;;6.70;99.90;;;;;;6203085;28;20472;-68
2021/11/06 08:25:00;;;;;;;6.03;5.43;;;6.80;99.90;;;;;;6202726;28;20469;-67
2021/11/06 08:28:04;;;;;;;7.53;5.30;;;6.90;99.90;;;;;;6203263;28;20476;-67
2021/11/06 08:31:08;;;;;;;5.90;5.10;;;7.00;99.80;;;;;;6203020;28;20968;-67
2021/11/06 08:34:12;;;;;;;5.60;4.90;;;7.10;99.60;;;;;;6202836;28;20495;-67
2021/11/06 08:37:15;;;;;;;5.37;4.87;;;7.20;99.20;;;;;;6202354;28;20485;-67
2021/11/06 08:40:18;;;;;;;5.60;4.50;;;7.30;99.00;;;;;;6202411;28;20822;-67
2021/11/06 08:43:22;;;;;;;5.77;4.70;;;7.40;98.50;;;;;;6202561;28;20464;-67
2021/11/06 08:46:26;;;;;;;5.90;4.67;;;7.50;98.00;;;;;;6193184;28;20484;-67
2021/11/06 08:49:30;;;;;;;6.23;4.60;;;7.70;97.90;;;;;;6202597;28;20488;-67
2021/11/06 08:52:33;;;;;;;6.43;4.87;;;7.80;97.70;;;;;;6202776;28;20464;-67
2021/11/06 08:55:37;;;;;;;5.80;5.20;;;7.90;97.40;;;;;;6202085;28;20480;-67
2021/11/06 08:58:40;;;;;;;5.63;5.10;;;8.00;97.10;;;;;;6203413;28;20473;-67
2021/11/06 09:01:46;;;;;;;5.03;3.80;;;8.20;96.80;;;;;;6203034;28;20805;-67
2021/11/06 09:04:50;;;;;;;5.47;4.80;;;8.40;96.40;;;;;;6201977;28;20473;-67
2021/11/06 09:07:54;;;;;;;6.40;4.60;;;8.60;95.70;;;;;;6201628;28;20568;-67
2021/11/06 09:11:02;;;;;;;4.67;4.27;;;8.80;94.90;;;;;;6201860;28;20485;-69
2021/11/06 09:14:05;;;;;;;4.73;4.23;;;8.80;94.50;;;;;;6200120;28;20977;-67
2021/11/06 09:17:10;;;;;;;5.13;3.70;;;9.00;94.30;;;;;;6196942;28;20481;-66
2021/11/06 09:20:13;;;;;;;4.20;3.90;;;9.40;94.50;;;;;;6201088;28;20477;-66
2021/11/06 09:23:16;;;;;;;4.83;3.87;;;12.30;93.00;;;;;;6201283;28;20476;-65
2021/11/06 09:26:20;;;;;;;4.10;3.77;;;17.00;73.70;;;;;;6201340;28;20485;-66
2021/11/06 09:29:24;;;;;;;6.80;4.07;;;21.70;51.00;;;;;;6201740;28;20497;-66
2021/11/06 09:32:30;;;;;;;5.37;3.27;;;25.40;43.10;;;;;;6200938;28;20677;-67
2021/11/06 09:35:33;;;;;;;4.70;4.10;;;28.20;33.60;;;;;;6200671;28;20256;-69
2021/11/06 09:38:37;;;;;;;4.70;4.30;;;30.80;29.40;;;;;;6200974;28;20233;-68
2021/11/06 09:41:40;;;;;;;4.32;3.92;;;32.80;26.50;;;;;;6201220;28;20229;-69
2021/11/06 09:44:44;;;;;;;5.10;4.60;;;34.40;24.10;;;;;;6200728;28;20552;-68
2021/11/06 09:47:48;;;;;;;5.25;4.85;;;35.80;22.70;;;;;;6190831;28;20272;-68
2021/11/06 09:50:52;;;;;;;6.38;5.78;;;36.90;21.30;;;;;;6204872;28;20197;-68
2021/11/06 09:53:56;;;;;;;6.20;5.60;;;37.50;20.70;;;;;;6198302;28;20228;-67
2021/11/06 09:56:59;;;;;;;6.05;5.55;;;37.50;20.50;;;;;;6187295;28;20217;-69
2021/11/06 10:00:05;;;;;;;6.93;6.32;;;38.20;19.80;;;;;;6176644;28;20621;-69
2021/11/06 10:03:10;;;;;;;6.60;5.97;;;38.60;19.30;;;;;;6177239;28;20231;-70
2021/11/06 10:06:18;;;;;;;7.85;7.10;;;38.70;18.90;;;;;;6177116;28;20248;-68
2021/11/06 10:09:23;;;;;;;6.90;6.40;;;37.10;19.60;;;;;;6181160;28;20231;-66
2021/11/06 10:12:26;;;;;;;7.15;6.45;;;38.00;19.60;;;;;;6182197;28;20239;-67
2021/11/06 10:15:29;;;;;;;6.25;5.65;;;37.90;19.50;;;;;;6191286;28;20227;-68
2021/11/06 10:18:34;;;;;;;5.75;5.22;;;37.60;19.10;;;;;;6205678;28;20681;-68
2021/11/06 10:21:38;;;;;;;5.82;5.32;;;37.50;19.20;;;;;;6205587;28;20241;-68
2021/11/06 10:24:43;;;;;;;4.80;4.40;;;37.90;19.20;;;;;;6205551;28;20251;-68
2021/11/06 10:27:51;;;;;;;5.13;4.45;;;37.30;18.60;;;;;;6205366;28;20245;-68
2021/11/06 10:31:02;;;;;;;3.72;3.42;;;36.50;19.00;;;;;;6205677;28;20235;-67
2021/11/06 10:34:13;;;;;;;3.50;3.20;;;36.40;19.00;;;;;;6205266;28;20244;-69
2021/11/06 10:37:16;;;;;;;2.22;2.10;;;34.20;19.50;;;;;;6204926;28;20233;-69
2021/11/06 10:40:20;;;;;;;3.13;2.60;;;35.10;19.10;;;;;;6204961;28;20233;-68
2021/11/06 10:43:25;;;;;;;2.22;2.13;;;36.30;18.40;;;;;;6204933;28;20251;-68
2021/11/06 10:46:30;;;;;;;2.10;1.90;;;37.50;17.60;;;;;;6205199;28;20240;-66
2021/11/06 10:49:39;;;;;;;1.90;1.80;;;37.30;17.50;;;;;;6195847;28;20226;-68
2021/11/06 10:52:47;;;;;;;2.22;1.98;;;36.10;17.90;;;;;;6172307;28;20677;-66
2021/11/06 10:55:53;;;;;;;2.30;2.10;;;36.30;17.90;;;;;;6180349;28;20245;-68
2021/11/06 10:58:58;;;;;;;1.95;1.73;;;34.40;18.80;;;;;;6179442;28;20563;-66
2021/11/06 11:02:01;;;;;;;1.85;1.45;;;33.20;19.10;;;;;;6180353;28;20248;-68
2021/11/06 11:05:27;;;;;;;2.60;2.10;;;32.70;19.80;;;;;;6180141;28;20225;-70
2021/11/06 11:08:30;;;;;;;2.70;1.95;;;33.10;19.70;;;;;;6180004;28;20230;-69
2021/11/06 11:11:34;;;;;;;1.83;1.60;;;32.40;19.70;;;;;;6180518;28;20237;-67
2021/11/06 11:14:37;;;;;;;3.30;2.20;;;31.20;20.50;;;;;;6180363;28;20229;-67
2021/11/06 11:17:41;;;;;;;2.67;2.13;;;30.10;21.70;;;;;;6195885;28;20225;-68
2021/11/06 11:20:45;;;;;;;2.30;2.10;;;28.50;23.00;;;;;;6202648;28;20644;-67
2021/11/06 11:23:50;;;;;;;2.20;2.10;;;28.20;23.40;;;;;;6204019;28;20632;-66
2021/11/06 11:26:56;;;;;;;2.17;2.00;;;26.70;24.60;;;;;;6197507;28;20232;-68
2021/11/06 11:30:00;;;;;;;2.60;2.37;;;25.30;25.50;;;;;;6191396;28;20198;-66
2021/11/06 11:33:04;;;;;;;3.10;2.17;;;24.00;26.70;;;;;;6185368;28;20237;-66
2021/11/06 11:36:10;;;;;;;2.20;2.00;;;23.00;27.80;;;;;;6179381;28;20242;-66
2021/11/06 11:39:18;;;;;;;1.97;1.87;;;22.50;28.50;;;;;;6179298;28;20241;-67
2021/11/06 11:42:37;;;;;;;3.37;2.10;;;23.30;28.80;;;;;;6179720;28;20679;-66
2021/11/06 11:45:48;;;;;;;1.90;1.80;;;24.80;27.80;;;;;;6179694;28;20532;-67
2021/11/06 11:48:53;;;;;;;2.37;1.90;;;26.50;25.70;;;;;;6179572;28;20226;-67
2021/11/06 11:51:58;;;;;;;1.70;1.60;;;26.80;24.90;;;;;;6178644;28;20570;-67
2021/11/06 11:55:05;;;;;;;3.53;1.73;;;27.00;24.40;;;;;;6174289;28;20245;-67
2021/11/06 11:58:12;;;;;;;2.07;1.87;;;26.40;24.80;;;;;;6178200;28;20230;-67
2021/11/06 12:01:19;;;;;;;2.10;1.90;;;25.00;26.10;;;;;;6190901;28;20237;-68
2021/11/06 12:04:22;;;;;;;1.70;1.60;;;23.70;27.10;;;;;;6204408;28;20230;-66
2021/11/06 12:07:27;;;;;;;2.00;1.80;;;22.50;28.10;;;;;;6203033;28;20252;-67
2021/11/06 12:10:34;;;;;;;1.83;1.73;;;21.60;29.00;;;;;;6203369;28;20237;-66
2021/11/06 12:13:40;;;;;;;2.90;1.90;;;20.60;29.80;;;;;;6203538;28;20698;-68
2021/11/06 12:16:47;;;;;;;2.10;1.70;;;19.10;32.20;;;;;;6202883;28;20712;-66
2021/11/06 12:19:52;;;;;;;3.50;1.70;;;17.90;35.00;;;;;;6203065;28;20548;-67
2021/11/06 12:22:56;;;;;;;2.83;2.63;;;17.20;36.70;;;;;;6202717;28;20519;-66
2021/11/06 12:26:13;;;;;;;2.73;2.53;;;17.20;36.50;;;;;;6202531;28;20484;-68
2021/11/06 12:29:38;;;;;;;1.90;1.80;;;17.50;36.40;;;;;;6202652;28;20479;-66
2021/11/06 12:32:50;;;;;;;2.70;2.50;;;17.50;38.10;;;;;;6202699;28;20445;-66
2021/11/06 12:36:17;;;;;;;2.43;2.23;;;17.30;37.30;;;;;;6200691;28;20971;-66
2021/11/06 12:39:50;;;;;;;1.93;1.83;;;17.80;37.50;;;;;;6201053;28;20770;-66
2021/11/06 12:43:23;;;;;;;2.13;2.03;;;18.80;36.40;;;;;;6200735;28;20532;-66
2021/11/06 12:46:29;;;;;;;2.40;2.20;;;19.30;35.20;;;;;;6200593;28;20682;-67
2021/11/06 12:49:32;;;;;;;2.37;2.17;;;19.80;34.80;;;;;;6201616;28;20233;-67
2021/11/06 12:52:42;;;;;;;2.60;2.23;;;20.10;34.50;;;;;;6202132;28;20229;-67
2021/11/06 12:55:46;;;;;;;2.60;2.40;;;20.30;34.60;;;;;;6202229;28;20237;-67
2021/11/06 12:59:01;;;;;;;2.50;2.30;;;20.80;33.40;;;;;;6201783;28;20253;-66
2021/11/06 13:02:04;;;;;;;3.20;2.03;;;20.60;33.20;;;;;;6197640;28;20234;-66
2021/11/06 13:05:08;;;;;;;2.77;2.40;;;21.10;32.90;;;;;;6201603;28;20233;-66
2021/11/06 13:08:17;;;;;;;2.60;2.40;;;23.50;31.70;;;;;;6201870;28;20237;-67
2021/11/06 13:11:22;;;;;;;2.80;2.57;;;26.80;28.20;;;;;;6202569;28;20226;-67
2021/11/06 13:14:36;;;;;;;2.60;2.40;;;28.80;25.70;;;;;;6201747;28;20247;-67
2021/11/06 13:17:39;;;;;;;2.47;2.30;;;29.90;24.70;;;;;;6201428;28;20229;-67
2021/11/06 13:20:43;;;;;;;2.53;2.33;;;31.50;23.20;;;;;;6201442;28;20233;-68
2021/11/06 13:23:55;;;;;;;2.57;2.37;;;32.40;22.00;;;;;;6201468;28;20344;-68
2021/11/06 13:26:59;;;;;;;2.97;2.77;;;32.50;21.50;;;;;;6201222;28;20708;-68
2021/11/06 13:30:27;;;;;;;2.53;2.33;;;31.40;21.30;;;;;;6202014;28;20205;-68
2021/11/06 13:33:32;;;;;;;2.60;2.40;;;28.50;23.50;;;;;;6198632;28;20229;-69
2021/11/06 13:36:37;;;;;;;2.53;2.33;;;26.20;25.70;;;;;;6176813;28;20230;-67
2021/11/06 13:39:40;;;;;;;2.63;2.43;;;24.30;27.40;;;;;;6177369;28;20225;-67
2021/11/06 13:42:44;;;;;;;2.30;2.10;;;22.40;28.70;;;;;;6176427;28;20222;-68
2021/11/06 13:46:25;;;;;;;2.37;2.23;;;20.90;30.50;;;;;;6176899;28;20670;-68
2021/11/06 13:49:34;;;;;;;2.90;2.00;;;19.40;32.40;;;;;;6176015;28;20681;-67
2021/11/06 13:52:39;;;;;;;2.80;2.60;;;18.40;34.10;;;;;;6176783;28;20234;-68
2021/11/06 13:55:42;;;;;;;3.13;2.33;;;17.90;35.30;;;;;;6176934;28;20686;-66
2021/11/06 13:58:48;;;;;;;3.67;3.00;;;17.30;36.60;;;;;;6198600;28;20657;-66
2021/11/06 14:01:52;;;;;;;2.40;1.87;;;16.80;38.00;;;;;;6201473;28;20952;-65
2021/11/06 14:04:57;;;;;;;2.50;2.30;;;16.50;38.40;;;;;;6191850;28;20484;-65
2021/11/06 14:08:01;;;;;;;2.70;2.50;;;16.20;39.40;;;;;;6200799;28;20468;-65
2021/11/06 14:11:05;;;;;;;2.30;2.10;;;16.00;39.80;;;;;;6200786;28;20833;-65
2021/11/06 14:14:10;;;;;;;2.33;2.13;;;15.80;40.30;;;;;;6200273;28;20965;-65
2021/11/06 14:17:13;;;;;;;3.20;1.80;;;15.60;40.90;;;;;;6200614;28;20512;-65
2021/11/06 14:20:18;;;;;;;2.50;2.17;;;15.10;41.50;;;;;;6201288;28;20480;-65
2021/11/06 14:23:30;;;;;;;3.80;3.37;;;14.90;42.40;;;;;;6188964;28;20480;-65
2021/11/06 14:26:42;;;;;;;3.53;3.23;;;14.50;43.50;;;;;;6176638;28;20485;-65
2021/11/06 14:33:24;;;;;;;3.20;2.80;;;14.20;44.00;;;;;;6317438;27;21023;-64
2021/11/06 14:36:29;;;;;;;2.47;2.27;;;13.70;45.90;;;;;;6290316;28;20478;-65
2021/11/06 14:39:34;;;;;;;2.90;2.60;;;13.50;46.20;;;;;;6271833;28;20481;-64
2021/11/06 14:42:41;;;;;;;2.60;2.40;;;13.50;46.70;;;;;;6271072;28;20989;-64
2021/11/06 14:45:56;;;;;;;2.90;2.70;;;13.30;47.10;;;;;;6271168;28;20977;-64
2021/11/06 14:49:01;;;;;;;2.70;2.50;;;13.10;47.90;;;;;;6271234;28;20467;-64
2021/11/06 14:52:06;;;;;;;2.90;2.70;;;13.00;48.60;;;;;;6272017;28;20474;-64
2021/11/06 14:55:11;;;;;;;2.63;2.43;;;13.00;49.00;;;;;;6271424;28;20481;-64
2021/11/06 14:58:14;;;;;;;3.53;3.23;;;13.00;49.50;;;;;;6270989;28;20470;-65
2021/11/06 15:01:18;;;;;;;3.10;2.50;;;12.90;49.10;;;;;;6271009;28;20781;-65
2021/11/06 15:04:23;;;;;;;2.87;2.63;;;12.90;49.30;;;;;;6270140;28;20487;-64
2021/11/06 15:07:45;;;;;;;2.90;2.70;;;12.80;49.60;;;;;;6265568;28;20692;-66
2021/11/06 15:10:51;;;;;;;4.83;2.90;;;12.80;49.70;;;;;;6270532;28;20490;-66
2021/11/06 15:13:54;;;;;;;4.27;3.97;;;12.80;50.20;;;;;;6270139;28;20474;-66
2021/11/06 15:16:57;;;;;;;6.20;5.77;;;12.70;50.60;;;;;;6270229;28;20481;-66
2021/11/06 15:20:03;;;;;;;4.10;3.80;;;12.70;51.00;;;;;;6269062;28;20470;-65
2021/11/06 15:23:07;;;;;;;3.37;3.10;;;12.60;51.60;;;;;;6278358;28;20473;-65
2021/11/06 15:26:10;;;;;;;3.23;2.70;;;12.50;52.20;;;;;;6293761;28;20482;-65
2021/11/06 15:29:14;;;;;;;3.60;2.57;;;12.30;53.50;;;;;;6293347;28;20477;-65
2021/11/06 15:32:17;;;;;;;3.60;3.30;;;12.20;53.90;;;;;;6273873;28;21223;-66
2021/11/06 15:35:22;;;;;;;3.43;3.07;;;12.10;54.20;;;;;;6268668;28;20486;-67
2021/11/06 15:38:25;;;;;;;4.93;3.43;;;12.10;54.60;;;;;;6268303;28;20482;-66
2021/11/06 15:41:29;;;;;;;3.47;3.17;;;12.00;55.30;;;;;;6268436;28;20789;-66
2021/11/06 15:44:32;;;;;;;3.47;3.10;;;12.00;56.10;;;;;;6252079;28;20479;-66
2021/11/06 15:47:36;;;;;;;4.70;3.10;;;11.90;56.10;;;;;;6252010;28;20479;-67
2021/11/06 15:50:41;;;;;;;3.40;3.10;;;11.80;56.90;;;;;;6251748;28;20482;-67
2021/11/06 15:53:44;;;;;;;3.73;3.43;;;11.90;57.40;;;;;;6251626;28;20491;-67
2021/11/06 15:56:47;;;;;;;3.40;3.10;;;11.80;57.80;;;;;;6251560;28;20462;-67
2021/11/06 15:59:50;;;;;;;3.80;3.50;;;11.80;58.10;;;;;;6251620;28;20760;-65
2021/11/06 16:02:54;;;;;;;4.10;3.33;;;11.80;58.30;;;;;;6251819;28;20435;-66
2021/11/06 16:05:58;;;;;;;3.90;3.60;;;11.80;58.60;;;;;;6251190;28;20459;-67
2021/11/06 16:09:02;;;;;;;3.50;2.97;;;11.80;59.00;;;;;;6246969;28;20447;-67
2021/11/06 16:12:05;;;;;;;4.03;2.77;;;11.80;58.80;;;;;;6250708;28;20506;-66
2021/11/06 16:15:09;;;;;;;4.67;3.70;;;11.90;59.20;;;;;;6251684;28;20459;-67